WetterOnline ( https://www.wetteronline.de )

Wetter aktuell Fischland

Aktuelles Wetter: Rostock-Warnemünde (10m)

6-stündlich | Neueste Meldungen
Ortszeit Temperatur Wetter
So, 25.09. 20:00 13.7° C bewölkt
So, 25.09. 14:00 14.6° C bedeckt
So, 25.09. 8:00 12.3° C bedeckt
So, 25.09. 2:00 12.5° C bedeckt
Sa, 24.09. 20:00 14.3° C bedeckt
Sa, 24.09. 14:00 15.5° C wolkig
Sa, 24.09. 8:00 10.8° C bedeckt
Sa, 24.09. 2:00 12.5° C bedeckt
Ortszeit Temperatur Wetter
Mo, 26.09. 1:00 11.8° C bewölkt
Mo, 26.09. 0:50 11.8° C bewölkt
Mo, 26.09. 0:40 11.9° C bedeckt
Mo, 26.09. 0:30 12.2° C bewölkt
Mo, 26.09. 0:20 12.2° C bewölkt
Mo, 26.09. 0:10 12.2° C bewölkt
Mo, 26.09. 0:00 11.9° C bedeckt
So, 25.09. 23:30 11.9° C bedeckt
So, 25.09. 23:00 11.6° C bedeckt
So, 25.09. 22:30 11.8° C bedeckt
Ortszeit Relative Feuchte Sichtweite
So, 25.09. 20:00 82% 30 km
So, 25.09. 14:00 75% 40 km
So, 25.09. 8:00 93% 10 km
So, 25.09. 2:00 89% 24 km
Sa, 24.09. 20:00 76% 40 km
Sa, 24.09. 14:00 67% 35 km
Sa, 24.09. 8:00 80% 55 km
Sa, 24.09. 2:00 69% 60 km
Ortszeit Relative Feuchte Sichtweite
Mo, 26.09. 1:00 79% 50 km
Mo, 26.09. 0:50 79% -
Mo, 26.09. 0:40 80% -
Mo, 26.09. 0:30 79% 40 km
Mo, 26.09. 0:20 79% -
Mo, 26.09. 0:10 80% -
Mo, 26.09. 0:00 90% 30 km
So, 25.09. 23:30 92% 29 km
So, 25.09. 23:00 92% 35 km
So, 25.09. 22:30 91% 35 km
Ortszeit Niederschlagsmenge Niederschlagsart
So, 25.09. 20:00 0.1 l/m2 in 12 Std. Sprühregen
So, 25.09. 14:00 0.0 l/m2 in 6 Std. -
So, 25.09. 8:00 0.1 l/m2 in 12 Std. Sprühregen
So, 25.09. 2:00 0.0 l/m2 in 6 Std. -
Sa, 24.09. 20:00 0.0 l/m2 in 12 Std. -
Sa, 24.09. 14:00 0.0 l/m2 in 6 Std. -
Sa, 24.09. 8:00 0.0 l/m2 in 12 Std. -
Sa, 24.09. 2:00 0.0 l/m2 in 6 Std. -
Ortszeit Niederschlagsmenge Niederschlagsart
Mo, 26.09. 1:00 0.1 l/m2 in 1 Std. -
Mo, 26.09. 0:50 keine Meldung -
Mo, 26.09. 0:40 keine Meldung -
Mo, 26.09. 0:30 0.1 l/m2 in 1 Std. -
Mo, 26.09. 0:20 keine Meldung -
Mo, 26.09. 0:10 keine Meldung -
Mo, 26.09. 0:00 0.1 l/m2 in 1 Std. Regen
So, 25.09. 23:30 0.1 l/m2 in 1 Std. Schneeregen
So, 25.09. 23:00 0.1 l/m2 in 1 Std. Regen
So, 25.09. 22:30 0.1 l/m2 in 1 Std. Schnee
Ortszeit Stärke Spitze Richtung
km/h Bft. km/h Grad Sektor
So, 25.09. 20:00 7 2 18 250° W
So, 25.09. 14:00 6 1 19 180° S
So, 25.09. 8:00 4 1 14 150° SO
So, 25.09. 2:00 7 2 11 180° S
Sa, 24.09. 20:00 7 2 18 180° S
Sa, 24.09. 14:00 7 2 22 350° N
Sa, 24.09. 8:00 11 2 18 170° S
Sa, 24.09. 2:00 7 2 18 160° S
Ortszeit Stärke Spitze Richtung
km/h Bft. km/h Grad Sektor
Mo, 26.09. 1:00 13 3 31 250° W
Mo, 26.09. 0:50 13 3 - 250° W
Mo, 26.09. 0:40 17 3 - 250° W
Mo, 26.09. 0:30 17 3 31 250° W
Mo, 26.09. 0:20 17 3 - 250° W
Mo, 26.09. 0:10 19 3 - 250° W
Mo, 26.09. 0:00 11 2 25 230° SW
So, 25.09. 23:30 13 3 20 220° SW
So, 25.09. 23:00 11 2 18 200° S
So, 25.09. 22:30 7 2 18 190° S
Ortszeit Untergrenze Bedeckung Gattung
total tief tief mittel hoch
So, 25.09. 20:00 1320 m 7/8 7/8 - - -
So, 25.09. 14:00 510 m 8/8 8/8 - - -
So, 25.09. 8:00 810 m 8/8 8/8 - - -
So, 25.09. 2:00 870 m 8/8 8/8 - - -
Sa, 24.09. 20:00 1800 m 8/8 8/8 - - -
Sa, 24.09. 14:00 1080 m 7/8 3/8 - - -
Sa, 24.09. 8:00 4800 m 8/8 8/8 - - -
Sa, 24.09. 2:00 3600 m 8/8 8/8 - - -
Ortszeit Bedeckungsgrad in Achtel und Wolkenuntergrenze
Mo, 26.09. 1:00 1(630m) 7(2100m) 7(7500m)
Mo, 26.09. 0:50 1(630m) 7(2100m) 7(7500m)
Mo, 26.09. 0:40 8
Mo, 26.09. 0:30 7(2400m) 7(7500m)
Mo, 26.09. 0:20 7(2400m) 7(7500m)
Mo, 26.09. 0:10 7
Mo, 26.09. 0:00 3(570m) 5(1230m) 8(2100m)
So, 25.09. 23:30 3(600m) 7(1110m) 8(1410m)
So, 25.09. 23:00 2(540m) 5(720m) 8(1350m)
So, 25.09. 22:30 7(1410m) 8(1800m)
Ortszeit Luftdruck NN (hPa) Tendenz (hPa in 3 Std.)
So, 25.09. 20:00 1009 - 1,0
So, 25.09. 14:00 1011 - 0,9
So, 25.09. 8:00 1013 - 0,2
So, 25.09. 2:00 1013 - 0,3
Sa, 24.09. 20:00 1013 + 0,3
Sa, 24.09. 14:00 1013 - 0,1
Sa, 24.09. 8:00 1012 - 0,2
Sa, 24.09. 2:00 1014 - 0,8
Ortszeit Luftdruck NN (hPa) Tendenz (hPa in 3 Std.)
Mo, 26.09. 1:00 1007 - 1,1
Mo, 26.09. 0:50 1007 keine Meldung
Mo, 26.09. 0:40 1007 keine Meldung
Mo, 26.09. 0:30 1007 - 1,3
Mo, 26.09. 0:20 1007 keine Meldung
Mo, 26.09. 0:10 1007 keine Meldung
Mo, 26.09. 0:00 1008 - 1,3
So, 25.09. 23:30 1008 - 1,2
So, 25.09. 23:00 1008 - 1,0
So, 25.09. 22:30 1008 - 1,0
Ortszeit Schneehöhe (cm)
So, 25.09. 20:00 0
So, 25.09. 14:00 0
So, 25.09. 8:00 0
So, 25.09. 2:00 0
Sa, 24.09. 20:00 0
Sa, 24.09. 14:00 0
Sa, 24.09. 8:00 0
Sa, 24.09. 2:00 0
Ortszeit Schneehöhe (cm)
Mo, 26.09. 1:00 0
Mo, 26.09. 0:50 0
Mo, 26.09. 0:40 0
Mo, 26.09. 0:30 0
Mo, 26.09. 0:20 0
Mo, 26.09. 0:10 0
Mo, 26.09. 0:00 0
So, 25.09. 23:30 0
So, 25.09. 23:00 0
So, 25.09. 22:30 0
Link zu dieser Seite / Seite empfehlen

Das Wetter in ...